createdAt,value
2022-11-07T00:02:09.107Z,11.50
2022-11-07T00:04:37.424Z,11.50
2022-11-07T00:07:07.204Z,11.50
2022-11-07T00:09:35.545Z,11.50
2022-11-07T00:12:03.648Z,11.50
2022-11-07T00:14:31.617Z,11.40
2022-11-07T00:16:59.589Z,11.40
2022-11-07T00:19:27.576Z,11.40
2022-11-07T00:21:55.476Z,11.50
2022-11-07T00:24:24.797Z,11.40
2022-11-07T00:26:52.815Z,11.50
2022-11-07T00:29:21.971Z,11.40
2022-11-07T00:31:51.082Z,11.40
2022-11-07T00:34:19.175Z,11.40
2022-11-07T00:36:47.108Z,11.40
2022-11-07T00:39:15.137Z,11.40
2022-11-07T00:41:44.457Z,11.40
2022-11-07T00:44:12.393Z,11.50
2022-11-07T00:46:40.337Z,11.40
2022-11-07T00:49:08.539Z,11.40
2022-11-07T00:51:36.714Z,11.40
2022-11-07T00:54:06.074Z,11.50
2022-11-07T00:56:34.086Z,11.50
2022-11-07T00:59:03.913Z,11.50
2022-11-07T01:01:34.337Z,11.60
2022-11-07T01:04:19.742Z,11.60
2022-11-07T01:06:47.998Z,11.50
2022-11-07T01:09:18.249Z,11.60
2022-11-07T01:11:47.530Z,11.50
2022-11-07T01:14:20.202Z,11.60
2022-11-07T01:16:48.401Z,11.50
2022-11-07T01:19:16.434Z,11.50
2022-11-07T01:21:45.004Z,11.50
2022-11-07T01:24:14.940Z,11.60
2022-11-07T01:26:44.590Z,11.50
2022-11-07T01:29:12.577Z,11.60
2022-11-07T01:31:42.211Z,11.50
2022-11-07T01:34:10.314Z,11.50
2022-11-07T01:36:38.281Z,11.50
2022-11-07T01:39:06.944Z,11.50
2022-11-07T01:41:37.133Z,11.50
2022-11-07T01:44:21.179Z,11.50
2022-11-07T01:46:51.086Z,11.50
2022-11-07T01:49:22.280Z,11.50
2022-11-07T01:51:56.054Z,11.50
2022-11-07T01:54:27.401Z,11.50
2022-11-07T01:56:58.298Z,11.50
2022-11-07T01:59:30.026Z,11.50
2022-11-07T02:02:00.104Z,11.40
2022-11-07T02:04:30.789Z,11.40
2022-11-07T02:07:03.910Z,11.40
2022-11-07T02:09:32.220Z,11.30
2022-11-07T02:12:01.094Z,11.40
2022-11-07T02:14:30.243Z,11.30
2022-11-07T02:17:01.107Z,11.30
2022-11-07T02:19:35.841Z,11.30
2022-11-07T02:22:12.646Z,11.30
2022-11-07T02:24:42.777Z,11.20
2022-11-07T02:27:14.845Z,11.20
2022-11-07T02:29:46.116Z,11.20
2022-11-07T02:32:14.421Z,11.20
2022-11-07T02:34:42.455Z,11.10
2022-11-07T02:37:20.796Z,11.20
2022-11-07T02:39:50.356Z,11.10
2022-11-07T02:42:18.815Z,11.20
2022-11-07T02:44:47.915Z,11.20
2022-11-07T02:47:16.585Z,11.10
2022-11-07T02:49:44.524Z,11.00
2022-11-07T02:52:12.480Z,11.00
2022-11-07T02:54:40.421Z,11.00
2022-11-07T02:57:09.731Z,11.00
2022-11-07T02:59:37.688Z,11.00
2022-11-07T03:02:05.753Z,10.90
2022-11-07T03:04:33.780Z,10.90
2022-11-07T03:07:01.717Z,10.90
2022-11-07T03:09:29.648Z,11.00
2022-11-07T03:11:57.555Z,11.00
2022-11-07T03:14:26.889Z,10.90
2022-11-07T03:16:54.836Z,10.90
2022-11-07T03:19:22.784Z,10.90
2022-11-07T03:21:50.996Z,10.90
2022-11-07T03:24:19.056Z,10.90
2022-11-07T03:26:47.036Z,11.00
2022-11-07T03:29:15.131Z,10.90
2022-11-07T03:31:44.429Z,10.90
2022-11-07T03:34:12.528Z,10.90
2022-11-07T03:36:40.482Z,10.90
2022-11-07T03:39:08.607Z,10.90
2022-11-07T03:41:36.602Z,10.90
2022-11-07T03:44:04.628Z,10.90
2022-11-07T03:46:32.587Z,10.90
2022-11-07T03:49:01.857Z,10.90
2022-11-07T03:51:29.836Z,10.80
2022-11-07T03:53:57.766Z,10.80
2022-11-07T03:56:25.759Z,10.80
2022-11-07T03:58:53.717Z,10.70
2022-11-07T04:01:21.706Z,10.70
2022-11-07T04:03:52.723Z,10.70
2022-11-07T04:06:25.313Z,10.70
2022-11-07T04:08:53.267Z,10.70
2022-11-07T04:11:35.115Z,10.60
2022-11-07T04:14:34.951Z,10.60
2022-11-07T04:17:21.370Z,10.70
2022-11-07T04:19:51.072Z,10.70
2022-11-07T04:22:20.426Z,10.70
2022-11-07T04:24:48.365Z,10.70
2022-11-07T04:27:34.504Z,10.70
2022-11-07T04:30:18.817Z,10.70
2022-11-07T04:32:47.997Z,10.70
2022-11-07T04:35:17.186Z,10.70
2022-11-07T04:37:47.449Z,10.70
2022-11-07T04:40:16.185Z,10.60
2022-11-07T04:42:44.661Z,10.60
2022-11-07T04:45:13.702Z,10.60
2022-11-07T04:47:42.371Z,10.50
2022-11-07T04:50:13.075Z,10.50
2022-11-07T04:52:41.733Z,10.50
2022-11-07T04:55:19.384Z,10.40
2022-11-07T04:57:47.344Z,10.40
2022-11-07T05:00:16.628Z,10.40
2022-11-07T05:02:44.753Z,10.30
2022-11-07T05:05:13.392Z,10.30
2022-11-07T05:07:41.952Z,10.30
2022-11-07T05:10:18.168Z,10.40
2022-11-07T05:12:46.306Z,10.40
2022-11-07T05:15:14.275Z,10.50
2022-11-07T05:17:42.247Z,10.50
2022-11-07T05:20:28.981Z,10.60
2022-11-07T05:23:19.042Z,10.50
2022-11-07T05:25:50.739Z,10.60
2022-11-07T05:28:30.000Z,10.60
2022-11-07T05:31:04.177Z,10.60
2022-11-07T05:33:32.427Z,10.60
2022-11-07T05:36:09.996Z,10.60
2022-11-07T05:38:38.045Z,10.70
2022-11-07T05:41:07.376Z,10.70
2022-11-07T05:43:35.364Z,10.70
2022-11-07T05:46:03.349Z,10.70
2022-11-07T05:48:31.513Z,10.70
2022-11-07T05:51:00.060Z,10.70
2022-11-07T05:53:28.768Z,10.70
2022-11-07T05:55:57.044Z,10.70
2022-11-07T05:58:26.389Z,10.70
2022-11-07T06:00:54.308Z,10.80
2022-11-07T06:03:22.624Z,10.90
2022-11-07T06:05:50.706Z,10.80
2022-11-07T06:08:18.698Z,10.90
2022-11-07T06:10:46.665Z,10.90
2022-11-07T06:13:17.473Z,10.90
2022-11-07T06:15:47.399Z,10.90
2022-11-07T06:18:17.436Z,10.90
2022-11-07T06:20:45.477Z,11.00
2022-11-07T06:23:14.238Z,10.90
2022-11-07T06:25:42.441Z,11.00
2022-11-07T06:28:12.309Z,11.00
2022-11-07T06:30:40.732Z,11.00
2022-11-07T06:33:13.790Z,10.90
2022-11-07T06:35:42.432Z,11.00
2022-11-07T06:38:11.921Z,11.00
2022-11-07T06:40:40.721Z,11.00
2022-11-07T06:43:09.228Z,11.00
2022-11-07T06:45:37.605Z,11.10
2022-11-07T06:48:05.873Z,11.10
2022-11-07T06:50:36.062Z,11.10
2022-11-07T06:53:05.103Z,11.10
2022-11-07T06:55:35.023Z,11.20
2022-11-07T06:58:04.222Z,11.20
2022-11-07T07:00:34.328Z,11.20
2022-11-07T07:03:02.781Z,11.30
2022-11-07T07:05:30.916Z,11.30
2022-11-07T07:08:00.307Z,11.30
2022-11-07T07:10:28.280Z,11.40
2022-11-07T07:12:57.500Z,11.40
2022-11-07T07:15:25.599Z,11.40
2022-11-07T07:17:53.632Z,11.50
2022-11-07T07:20:21.700Z,11.50
2022-11-07T07:22:55.438Z,11.50
2022-11-07T07:25:28.505Z,11.60
2022-11-07T07:27:56.478Z,11.60
2022-11-07T07:30:24.435Z,11.60
2022-11-07T07:32:52.414Z,11.70
2022-11-07T07:35:21.849Z,11.80
2022-11-07T07:37:51.821Z,11.80
2022-11-07T07:40:20.628Z,12.00
2022-11-07T07:42:50.389Z,12.20
2022-11-07T07:45:18.978Z,12.40
2022-11-07T07:47:46.998Z,12.50
2022-11-07T07:50:15.369Z,12.60
2022-11-07T07:52:43.795Z,12.70
2022-11-07T07:55:11.996Z,12.70
2022-11-07T07:57:41.638Z,12.70
2022-11-07T08:00:12.805Z,12.70
2022-11-07T08:02:43.360Z,12.70
2022-11-07T08:05:11.996Z,12.80
2022-11-07T08:07:46.781Z,12.80
2022-11-07T08:10:40.396Z,12.80
2022-11-07T08:13:02.994Z,12.90
2022-11-07T08:15:32.393Z,12.90
2022-11-07T08:18:02.675Z,13.00
2022-11-07T08:20:30.816Z,13.00
2022-11-07T08:23:02.879Z,13.00
2022-11-07T08:25:31.326Z,13.00
2022-11-07T08:27:59.560Z,13.00
2022-11-07T08:30:28.317Z,13.00
2022-11-07T08:33:00.413Z,13.10
2022-11-07T08:35:28.468Z,13.10
2022-11-07T08:37:56.617Z,13.10
2022-11-07T08:40:24.807Z,13.10
2022-11-07T08:42:52.854Z,13.10
2022-11-07T08:45:20.845Z,13.10
2022-11-07T08:47:48.889Z,13.20
2022-11-07T08:50:18.373Z,13.20
2022-11-07T08:52:46.383Z,13.20
2022-11-07T08:55:14.488Z,13.30
2022-11-07T08:57:42.459Z,13.30
2022-11-07T09:00:11.711Z,13.30
2022-11-07T09:03:12.663Z,13.30
2022-11-07T09:05:29.077Z,13.40
2022-11-07T09:07:57.080Z,13.40
2022-11-07T09:10:25.097Z,13.50
2022-11-07T09:12:53.838Z,13.50
2022-11-07T09:15:22.075Z,13.50
2022-11-07T09:17:51.022Z,13.60
2022-11-07T09:20:19.679Z,13.60
2022-11-07T09:22:49.461Z,13.70
2022-11-07T09:25:17.547Z,13.70
2022-11-07T09:27:47.219Z,13.80
2022-11-07T09:30:15.978Z,13.80
2022-11-07T09:32:45.557Z,13.70
2022-11-07T09:35:14.447Z,13.80
2022-11-07T09:37:43.194Z,13.80
2022-11-07T09:40:24.739Z,13.80
2022-11-07T09:43:04.545Z,13.80
2022-11-07T09:45:36.976Z,13.90
2022-11-07T09:48:07.821Z,13.90
2022-11-07T09:50:39.909Z,13.90
2022-11-07T09:53:15.784Z,13.90
2022-11-07T09:55:52.411Z,13.90
2022-11-07T09:58:26.909Z,13.90
2022-11-07T10:00:58.054Z,14.00
2022-11-07T10:03:26.366Z,14.00
2022-11-07T10:06:04.422Z,14.00
2022-11-07T10:08:41.382Z,14.00
2022-11-07T10:11:17.761Z,14.00
2022-11-07T10:13:57.095Z,14.10
2022-11-07T10:16:37.045Z,14.10
2022-11-07T10:19:21.359Z,14.20
2022-11-07T10:21:58.941Z,14.20
2022-11-07T10:24:41.991Z,14.30
2022-11-07T10:27:12.596Z,14.40
2022-11-07T10:29:46.960Z,14.40
2022-11-07T10:32:23.270Z,14.50
2022-11-07T10:34:57.379Z,14.60
2022-11-07T10:37:25.462Z,14.60
2022-11-07T10:39:53.463Z,14.60
2022-11-07T10:42:26.587Z,14.70
2022-11-07T10:44:56.660Z,14.70
2022-11-07T10:47:26.154Z,14.70
2022-11-07T10:49:56.388Z,14.80
2022-11-07T10:52:24.988Z,14.90
2022-11-07T10:54:53.419Z,15.00
2022-11-07T10:57:24.739Z,15.10
2022-11-07T10:59:58.162Z,15.10
2022-11-07T11:02:27.954Z,15.20
2022-11-07T11:04:58.042Z,15.20
2022-11-07T11:07:28.763Z,15.20
2022-11-07T11:09:58.689Z,15.20
2022-11-07T11:12:31.329Z,15.10
2022-11-07T11:15:11.241Z,15.10
2022-11-07T11:17:39.608Z,15.20
2022-11-07T11:20:20.874Z,15.20
2022-11-07T11:22:48.912Z,15.20
2022-11-07T11:25:21.546Z,15.20
2022-11-07T11:27:56.775Z,15.10
2022-11-07T11:30:25.879Z,15.10
2022-11-07T11:33:02.088Z,15.10
2022-11-07T11:35:41.867Z,15.10
2022-11-07T11:38:15.236Z,15.20
2022-11-07T11:40:49.304Z,15.20
2022-11-07T11:43:24.850Z,15.30
2022-11-07T11:46:06.213Z,15.30
2022-11-07T11:48:40.643Z,15.30
2022-11-07T11:51:17.469Z,15.40
2022-11-07T11:53:45.486Z,15.40
2022-11-07T11:56:27.731Z,15.50
2022-11-07T11:59:16.100Z,15.50
2022-11-07T12:01:55.983Z,15.50
2022-11-07T12:04:40.438Z,15.60
2022-11-07T12:07:23.113Z,15.70
2022-11-07T12:09:59.767Z,15.80
2022-11-07T12:12:34.661Z,16.00
2022-11-07T12:15:46.191Z,16.20
2022-11-07T12:18:22.435Z,16.40
2022-11-07T12:21:01.013Z,16.60
2022-11-07T12:23:49.179Z,16.70
2022-11-07T12:26:24.432Z,16.90
2022-11-07T12:29:01.712Z,17.00
2022-11-07T12:31:46.829Z,16.90
2022-11-07T12:34:26.805Z,16.70
2022-11-07T12:37:05.661Z,16.40
2022-11-07T12:39:52.029Z,16.30
2022-11-07T12:42:32.426Z,16.30
2022-11-07T12:45:14.579Z,16.20
2022-11-07T12:48:01.538Z,16.30
2022-11-07T12:50:41.271Z,16.30
2022-11-07T12:53:17.753Z,16.20
2022-11-07T12:55:49.547Z,16.20
2022-11-07T12:58:21.094Z,16.20
2022-11-07T13:00:49.980Z,16.20
2022-11-07T13:03:58.428Z,16.20
2022-11-07T13:06:34.522Z,16.10
2022-11-07T13:09:14.993Z,16.10
2022-11-07T13:11:48.693Z,16.10
2022-11-07T13:14:24.622Z,16.20
2022-11-07T13:17:15.167Z,16.20
2022-11-07T13:19:46.421Z,16.20
2022-11-07T13:22:31.910Z,16.30
2022-11-07T13:25:15.068Z,16.30
2022-11-07T13:27:46.716Z,16.40
2022-11-07T13:30:21.258Z,16.40
2022-11-07T13:32:50.914Z,16.40
2022-11-07T13:35:31.587Z,16.40
2022-11-07T13:38:07.401Z,16.30
2022-11-07T13:40:38.987Z,16.30
2022-11-07T13:43:14.754Z,16.30
2022-11-07T13:45:47.796Z,16.30
2022-11-07T13:48:19.914Z,16.30
2022-11-07T13:50:58.909Z,16.30
2022-11-07T13:53:33.390Z,16.30
2022-11-07T13:56:06.087Z,16.30
2022-11-07T13:58:38.239Z,16.40
2022-11-07T14:01:11.911Z,16.50
2022-11-07T14:03:40.137Z,16.50
2022-11-07T14:06:14.069Z,16.70
2022-11-07T14:08:45.830Z,16.80
2022-11-07T14:11:18.999Z,16.80
2022-11-07T14:13:49.255Z,16.90
2022-11-07T14:16:21.829Z,16.70
2022-11-07T14:18:52.098Z,16.60
2022-11-07T14:21:24.008Z,16.50
2022-11-07T14:23:52.012Z,16.40
2022-11-07T14:26:23.263Z,16.30
2022-11-07T14:28:51.639Z,16.30
2022-11-07T14:31:21.999Z,16.20
2022-11-07T14:33:51.201Z,16.10
2022-11-07T14:36:21.306Z,16.10
2022-11-07T14:38:50.701Z,16.10
2022-11-07T14:41:19.851Z,16.10
2022-11-07T14:43:48.840Z,16.00
2022-11-07T14:46:20.881Z,16.00
2022-11-07T14:48:51.405Z,16.00
2022-11-07T14:51:24.903Z,16.00
2022-11-07T14:53:58.336Z,16.00
2022-11-07T14:56:31.422Z,15.90
2022-11-07T14:58:59.788Z,15.90
2022-11-07T15:01:30.925Z,15.90
2022-11-07T15:04:01.031Z,15.90
2022-11-07T15:06:34.355Z,15.90
2022-11-07T15:09:06.235Z,15.90
2022-11-07T15:11:36.509Z,15.90
2022-11-07T15:14:07.140Z,15.90
2022-11-07T15:16:39.136Z,15.80
2022-11-07T15:19:11.207Z,15.80
2022-11-07T15:21:53.279Z,15.80
2022-11-07T15:24:34.908Z,15.80
2022-11-07T15:27:04.894Z,15.80
2022-11-07T15:29:35.910Z,15.70
2022-11-07T15:32:12.641Z,15.60
2022-11-07T15:35:03.380Z,15.60
2022-11-07T15:37:30.098Z,15.50
2022-11-07T15:39:58.368Z,15.50
2022-11-07T15:42:26.503Z,15.50
2022-11-07T15:44:54.511Z,15.50
2022-11-07T15:47:23.656Z,15.50
2022-11-07T15:49:52.052Z,15.50
2022-11-07T15:52:20.124Z,15.50
2022-11-07T15:54:49.509Z,15.50
2022-11-07T15:57:17.600Z,15.50
2022-11-07T15:59:45.653Z,15.40
2022-11-07T16:02:17.302Z,15.50
2022-11-07T16:04:45.398Z,15.40
2022-11-07T16:07:17.753Z,15.30
2022-11-07T16:09:48.416Z,15.30
2022-11-07T16:12:20.077Z,15.30
2022-11-07T16:14:48.280Z,15.30
2022-11-07T16:17:17.778Z,15.30
2022-11-07T16:19:46.133Z,15.30
2022-11-07T16:22:16.024Z,15.20
2022-11-07T16:24:44.092Z,15.20
2022-11-07T16:27:18.563Z,15.20
2022-11-07T16:29:47.040Z,15.20
2022-11-07T16:32:18.358Z,15.20
2022-11-07T16:34:47.668Z,15.20
2022-11-07T16:37:15.674Z,15.10
2022-11-07T16:39:43.747Z,15.10
2022-11-07T16:42:15.998Z,15.10
2022-11-07T16:44:45.505Z,15.10
2022-11-07T16:47:17.341Z,15.10
2022-11-07T16:49:45.678Z,15.10
2022-11-07T16:52:15.810Z,15.20
2022-11-07T16:54:44.189Z,15.10
2022-11-07T16:57:13.695Z,15.10
2022-11-07T16:59:42.068Z,15.10
2022-11-07T17:02:20.786Z,15.10
2022-11-07T17:04:50.142Z,15.10
2022-11-07T17:07:19.661Z,15.10
2022-11-07T17:09:47.892Z,15.00
2022-11-07T17:12:18.061Z,15.00
2022-11-07T17:14:46.117Z,15.00
2022-11-07T17:17:17.124Z,15.00
2022-11-07T17:19:45.329Z,15.00
2022-11-07T17:22:14.032Z,15.00
2022-11-07T17:24:42.918Z,15.00
2022-11-07T17:27:21.058Z,15.00
2022-11-07T17:29:49.584Z,15.00
2022-11-07T17:32:19.662Z,14.90
2022-11-07T17:34:55.030Z,14.90
2022-11-07T17:37:32.703Z,15.00
2022-11-07T17:40:00.699Z,14.90
2022-11-07T17:42:31.539Z,14.90
2022-11-07T17:45:02.041Z,14.90
2022-11-07T17:47:34.216Z,14.90
2022-11-07T17:50:02.415Z,14.90
2022-11-07T17:52:30.971Z,14.90
2022-11-07T17:54:59.080Z,14.90
2022-11-07T17:57:27.340Z,14.80
2022-11-07T17:59:55.287Z,14.90
2022-11-07T18:02:23.840Z,14.90
2022-11-07T18:04:53.379Z,14.80
2022-11-07T18:07:21.764Z,14.80
2022-11-07T18:09:51.288Z,14.80
2022-11-07T18:12:19.446Z,14.80
2022-11-07T18:14:47.529Z,14.80
2022-11-07T18:17:15.528Z,14.80
2022-11-07T18:19:43.558Z,14.80
2022-11-07T18:22:12.991Z,14.80
2022-11-07T18:24:41.718Z,14.80
2022-11-07T18:27:10.821Z,14.80
2022-11-07T18:29:40.480Z,14.80
2022-11-07T18:32:09.066Z,14.80
2022-11-07T18:34:37.127Z,14.80
2022-11-07T18:37:05.351Z,14.80
2022-11-07T18:39:35.493Z,14.80
2022-11-07T18:42:04.260Z,14.80
2022-11-07T18:44:32.751Z,14.80
2022-11-07T18:47:01.149Z,14.70
2022-11-07T18:49:29.349Z,14.80
2022-11-07T18:51:57.371Z,14.70
2022-11-07T18:54:26.283Z,14.70
2022-11-07T18:56:56.112Z,14.70
2022-11-07T18:59:24.082Z,14.70
2022-11-07T19:01:52.288Z,14.70
2022-11-07T19:04:20.467Z,14.70
2022-11-07T19:06:57.753Z,14.70
2022-11-07T19:09:30.520Z,14.70
2022-11-07T19:12:01.260Z,14.70
2022-11-07T19:14:30.514Z,14.80
2022-11-07T19:16:59.203Z,14.90
2022-11-07T19:19:27.200Z,14.90
2022-11-07T19:21:55.215Z,14.80
2022-11-07T19:24:23.358Z,14.80
2022-11-07T19:26:51.424Z,14.80
2022-11-07T19:29:20.986Z,14.80
2022-11-07T19:31:48.977Z,14.80
2022-11-07T19:34:17.993Z,14.80
2022-11-07T19:36:46.093Z,14.70
2022-11-07T19:39:14.178Z,14.70
2022-11-07T19:41:42.224Z,14.70
2022-11-07T19:44:10.221Z,14.70
2022-11-07T19:46:39.619Z,14.70
2022-11-07T19:49:07.742Z,14.70
2022-11-07T19:51:36.349Z,14.70
2022-11-07T19:54:06.986Z,14.70
2022-11-07T19:56:35.162Z,14.70
2022-11-07T19:59:03.242Z,14.70
2022-11-07T20:01:33.620Z,14.70
2022-11-07T20:04:04.408Z,14.60
2022-11-07T20:06:35.944Z,14.60
2022-11-07T20:09:06.271Z,14.60
2022-11-07T20:11:34.721Z,14.50
2022-11-07T20:14:04.170Z,14.50
2022-11-07T20:16:33.011Z,14.40
2022-11-07T20:19:03.064Z,14.40
2022-11-07T20:21:32.355Z,14.40
2022-11-07T20:24:00.803Z,14.30
2022-11-07T20:26:31.728Z,14.40
2022-11-07T20:29:00.371Z,14.30
2022-11-07T20:31:30.352Z,14.30
2022-11-07T20:33:59.748Z,14.30
2022-11-07T20:36:31.133Z,14.30
2022-11-07T20:38:59.888Z,14.30
2022-11-07T20:41:29.014Z,14.20
2022-11-07T20:43:58.358Z,14.20
2022-11-07T20:46:26.868Z,14.20
2022-11-07T20:48:55.182Z,14.10
2022-11-07T20:51:25.237Z,14.10
2022-11-07T20:53:55.685Z,14.10
2022-11-07T20:56:25.308Z,14.10
2022-11-07T20:58:54.104Z,14.10
2022-11-07T21:01:24.785Z,14.00
2022-11-07T21:03:53.073Z,14.00
2022-11-07T21:06:21.292Z,14.00
2022-11-07T21:08:50.449Z,14.00
2022-11-07T21:11:20.064Z,13.90
2022-11-07T21:13:53.069Z,14.00
2022-11-07T21:16:22.594Z,14.00
2022-11-07T21:18:50.996Z,14.10
2022-11-07T21:21:20.920Z,14.00
2022-11-07T21:23:50.414Z,14.00
2022-11-07T21:26:22.532Z,13.90
2022-11-07T21:28:51.320Z,13.90
2022-11-07T21:31:23.632Z,13.90
2022-11-07T21:33:51.955Z,13.90
2022-11-07T21:36:21.904Z,13.90
2022-11-07T21:38:50.092Z,13.90
2022-11-07T21:41:19.554Z,13.90
2022-11-07T21:43:47.779Z,13.80
2022-11-07T21:46:17.652Z,13.80
2022-11-07T21:48:46.698Z,13.80
2022-11-07T21:51:17.153Z,13.80
2022-11-07T21:53:45.712Z,13.80
2022-11-07T21:56:16.205Z,13.80
2022-11-07T21:58:46.348Z,13.80
2022-11-07T22:01:14.627Z,13.70
2022-11-07T22:06:34.099Z,13.70
2022-11-07T22:09:02.630Z,13.60
2022-11-07T22:11:30.735Z,13.60
2022-11-07T22:14:00.276Z,13.60
2022-11-07T22:16:28.523Z,13.60
2022-11-07T22:18:56.654Z,13.50
2022-11-07T22:21:24.706Z,13.50
2022-11-07T22:23:52.783Z,13.40
2022-11-07T22:26:22.462Z,13.40
2022-11-07T22:28:51.476Z,13.40
2022-11-07T22:31:22.775Z,13.30
2022-11-07T22:33:52.531Z,13.30
2022-11-07T22:36:20.971Z,13.30
2022-11-07T22:38:48.938Z,13.30
2022-11-07T22:41:19.191Z,13.30
2022-11-07T22:43:48.134Z,13.30
2022-11-07T22:46:18.885Z,13.30
2022-11-07T22:48:49.391Z,13.20
2022-11-07T22:51:19.757Z,13.20
2022-11-07T22:53:47.938Z,13.10
2022-11-07T22:56:17.936Z,13.10
2022-11-07T22:58:47.472Z,13.10
2022-11-07T23:01:17.898Z,13.10
2022-11-07T23:03:46.294Z,13.00
2022-11-07T23:06:15.868Z,13.00
2022-11-07T23:08:43.960Z,13.00
2022-11-07T23:14:04.563Z,12.90
2022-11-07T23:16:34.557Z,12.80
2022-11-07T23:19:05.320Z,12.80
2022-11-07T23:21:34.891Z,12.70
2022-11-07T23:24:03.696Z,12.70
2022-11-07T23:26:34.394Z,12.70
2022-11-07T23:29:09.292Z,12.60
2022-11-07T23:31:39.448Z,12.60
2022-11-07T23:34:07.848Z,12.70
2022-11-07T23:36:37.476Z,12.70
2022-11-07T23:39:06.944Z,12.80
2022-11-07T23:41:35.428Z,12.80
2022-11-07T23:44:03.555Z,12.90
2022-11-07T23:46:49.629Z,13.00
2022-11-07T23:49:35.156Z,13.00
2022-11-07T23:52:05.423Z,13.10
2022-11-07T23:54:52.156Z,13.10
2022-11-07T23:57:20.354Z,13.30
